Ardenvoir, WA

9:30 PM PDT on October 22, 2014 (GMT -0700)
Entiat Valley | Change Station
CLOSE
Current Station
Personal Weather Station
Location: Entiat, WA
Elevation: 1050 ft
Nearby Weather Stations

Elev 1050 ft 47.70 °N, 120.33 °W | Updated 1 second ago

Overcast
Overcast
49.1 °F
Feels Like 49 °F
N
2.0
Wind Variable Wind from WNW
Gusts 3.0 mph

Today
High -- | Low -- °F
--% Chance of Precip.
Yesterday
High -- | Low -- °F
Precip. -- in
7:30 AM 6:00 PM
Waning Crescent, 1% visible
Pressure 29.65 in
Visibility 6.0 miles
Clouds Scattered Clouds 1200 ft
Mostly Cloudy 4300 ft
Mostly Cloudy 6500 ft
Windchill 49 °F
Dew Point 48 °F
Humidity 95%
Rainfall 0.00 in
Snow Depth 1 in
UV 0 out of 12
Pollen .40 out of 12
Air Quality Not available.
Flu Activity Sporadic
SPECI KEAT 230410Z AUTO 00000KT 6SM BR SCT012 BKN043 BKN065 11/08 A2965 RMK AO2 T01060083

More Conditions Fewer Conditions

Pressure 29.65 in
Visibility 6.0 miles
Clouds Scattered Clouds 1200 ft
Mostly Cloudy 4300 ft
Mostly Cloudy 6500 ft
Windchill 49 °F
Dew Point 48 °F
Humidity 95%
Rainfall 0.00 in
Snow Depth 1 in
UV 0 out of 12
Pollen .40 out of 12
Air Quality Not available.
Flu Activity Sporadic
SPECI KEAT 230410Z AUTO 00000KT 6SM BR SCT012 BKN043 BKN065 11/08 A2965 RMK AO2 T01060083

More Conditions Fewer Conditions

10-Day Weather Forecast

Almanac

Astronomy

Oct. 22, 2014 Rise Set
Actual Time 7:30 AM PDT 6:00 PM PDT
Civil Twilight 6:59 AM PDT 6:31 PM PDT
Nautical Twilight 6:23 AM PDT 7:07 PM PDT
Astronomical Twilight 5:47 AM PDT 7:43 PM PDT
Moon 6:12 AM PDT (10/22) 5:33 PM PDT (10/22)
Length of Visible Light 11h 32m
Length of Day
10h 29m
Tomorrow will be 3m 15s shorter.
Waning Crescent, 1% of the Moon is Illuminated
Oct 23
Waning Crescent
Oct 23
New
Oct 30
First Quarter
Nov 6
Full
Nov 14
Last Quarter

Yesterday's Extremes

State Highs State Lows

Community

WunderPhotos

Upload Photos

1,764,154 photos uploaded!

Nearby

Snow Depth

Station Depth Elevation
Pope Ridge 1 in 3540 ft
Blewett Pass 0 in 4270 ft
Stevens Pass 0 in 4070 ft
Grouse Camp 0 in 5380 ft
Trough 0 in 5300 ft

Earthquake Activity

City Distance Mag. Time & Date
No recent earthquake activity has been reported nearby.
Minimum magnitude displayed is 2.5.

Coastal Water Temperatures

Place Temperature
No Stations Reporting

Nearby Weather Stations